sensor_id;sensor_type;location;lat;lon;timestamp;temperature;humidity
23731;DHT22;12046;44.702;10.622;2023-07-02T00:00:04;23.00;99.90
23731;DHT22;12046;44.702;10.622;2023-07-02T00:02:33;22.90;99.90
23731;DHT22;12046;44.702;10.622;2023-07-02T00:04:59;22.90;99.90
23731;DHT22;12046;44.702;10.622;2023-07-02T00:07:25;22.90;99.90
23731;DHT22;12046;44.702;10.622;2023-07-02T00:09:53;22.90;99.90
23731;DHT22;12046;44.702;10.622;2023-07-02T00:12:19;22.90;99.90
23731;DHT22;12046;44.702;10.622;2023-07-02T00:14:45;22.90;99.90
23731;DHT22;12046;44.702;10.622;2023-07-02T00:17:11;22.90;99.90
23731;DHT22;12046;44.702;10.622;2023-07-02T00:19:38;22.90;99.90
23731;DHT22;12046;44.702;10.622;2023-07-02T00:22:12;22.90;99.90
23731;DHT22;12046;44.702;10.622;2023-07-02T00:24:38;22.90;99.90
23731;DHT22;12046;44.702;10.622;2023-07-02T00:27:04;23.00;99.90
23731;DHT22;12046;44.702;10.622;2023-07-02T00:29:33;22.90;99.90
23731;DHT22;12046;44.702;10.622;2023-07-02T00:31:59;23.00;99.90
23731;DHT22;12046;44.702;10.622;2023-07-02T00:34:25;23.00;99.90
23731;DHT22;12046;44.702;10.622;2023-07-02T00:36:52;23.00;99.90
23731;DHT22;12046;44.702;10.622;2023-07-02T00:39:18;23.00;99.90
23731;DHT22;12046;44.702;10.622;2023-07-02T00:41:44;23.00;99.90
23731;DHT22;12046;44.702;10.622;2023-07-02T00:44:12;23.00;99.90
23731;DHT22;12046;44.702;10.622;2023-07-02T00:46:38;23.00;99.90
23731;DHT22;12046;44.702;10.622;2023-07-02T00:49:05;23.10;99.90
23731;DHT22;12046;44.702;10.622;2023-07-02T00:51:31;23.00;99.90
23731;DHT22;12046;44.702;10.622;2023-07-02T00:53:58;23.00;99.90
23731;DHT22;12046;44.702;10.622;2023-07-02T00:56:26;23.00;99.90
23731;DHT22;12046;44.702;10.622;2023-07-02T00:58:54;23.10;99.90
23731;DHT22;12046;44.702;10.622;2023-07-02T01:01:21;23.10;99.90
23731;DHT22;12046;44.702;10.622;2023-07-02T01:03:57;23.10;99.90
23731;DHT22;12046;44.702;10.622;2023-07-02T01:06:31;23.10;99.90
23731;DHT22;12046;44.702;10.622;2023-07-02T01:08:59;23.10;99.90
23731;DHT22;12046;44.702;10.622;2023-07-02T01:11:29;23.10;99.90
23731;DHT22;12046;44.702;10.622;2023-07-02T01:14:04;23.10;99.90
23731;DHT22;12046;44.702;10.622;2023-07-02T01:16:31;23.00;99.90
23731;DHT22;12046;44.702;10.622;2023-07-02T01:18:59;23.00;99.90
23731;DHT22;12046;44.702;10.622;2023-07-02T01:21:30;23.00;99.90
23731;DHT22;12046;44.702;10.622;2023-07-02T01:23:58;23.00;99.90
23731;DHT22;12046;44.702;10.622;2023-07-02T01:26:31;23.00;99.90
23731;DHT22;12046;44.702;10.622;2023-07-02T01:29:13;23.00;99.90
23731;DHT22;12046;44.702;10.622;2023-07-02T01:31:39;23.00;99.90
23731;DHT22;12046;44.702;10.622;2023-07-02T01:34:05;22.90;99.90
23731;DHT22;12046;44.702;10.622;2023-07-02T01:36:33;23.00;99.90
23731;DHT22;12046;44.702;10.622;2023-07-02T01:38:59;22.90;99.90
23731;DHT22;12046;44.702;10.622;2023-07-02T01:41:25;22.90;99.90
23731;DHT22;12046;44.702;10.622;2023-07-02T01:43:50;22.90;99.90
23731;DHT22;12046;44.702;10.622;2023-07-02T01:46:16;22.90;99.90
23731;DHT22;12046;44.702;10.622;2023-07-02T01:48:42;22.90;99.90
23731;DHT22;12046;44.702;10.622;2023-07-02T01:51:07;22.80;99.90
23731;DHT22;12046;44.702;10.622;2023-07-02T01:53:33;22.90;99.90
23731;DHT22;12046;44.702;10.622;2023-07-02T01:55:59;22.80;99.90
23731;DHT22;12046;44.702;10.622;2023-07-02T01:58:25;22.80;99.90
23731;DHT22;12046;44.702;10.622;2023-07-02T02:00:51;22.80;99.90
23731;DHT22;12046;44.702;10.622;2023-07-02T02:03:17;22.80;99.90
23731;DHT22;12046;44.702;10.622;2023-07-02T02:05:43;22.80;99.90
23731;DHT22;12046;44.702;10.622;2023-07-02T02:08:09;22.80;99.90
23731;DHT22;12046;44.702;10.622;2023-07-02T02:10:34;22.80;99.90
23731;DHT22;12046;44.702;10.622;2023-07-02T02:13:00;22.80;99.90
23731;DHT22;12046;44.702;10.622;2023-07-02T02:15:26;22.70;99.90
23731;DHT22;12046;44.702;10.622;2023-07-02T02:17:52;22.80;99.90
23731;DHT22;12046;44.702;10.622;2023-07-02T02:20:18;22.70;99.90
23731;DHT22;12046;44.702;10.622;2023-07-02T02:22:43;22.70;99.90
23731;DHT22;12046;44.702;10.622;2023-07-02T02:25:09;22.70;99.90
23731;DHT22;12046;44.702;10.622;2023-07-02T02:27:35;22.70;99.90
23731;DHT22;12046;44.702;10.622;2023-07-02T02:30:01;22.70;99.90
23731;DHT22;12046;44.702;10.622;2023-07-02T02:32:27;22.60;99.90
23731;DHT22;12046;44.702;10.622;2023-07-02T02:34:52;22.60;99.90
23731;DHT22;12046;44.702;10.622;2023-07-02T02:37:20;22.60;99.90
23731;DHT22;12046;44.702;10.622;2023-07-02T02:39:47;22.50;99.90
23731;DHT22;12046;44.702;10.622;2023-07-02T02:42:13;22.50;99.90
23731;DHT22;12046;44.702;10.622;2023-07-02T02:44:40;22.40;99.90
23731;DHT22;12046;44.702;10.622;2023-07-02T02:47:06;22.40;99.90
23731;DHT22;12046;44.702;10.622;2023-07-02T02:49:31;22.30;99.90
23731;DHT22;12046;44.702;10.622;2023-07-02T02:51:57;22.30;99.90
23731;DHT22;12046;44.702;10.622;2023-07-02T02:54:23;22.30;99.90
23731;DHT22;12046;44.702;10.622;2023-07-02T02:56:49;22.30;99.90
23731;DHT22;12046;44.702;10.622;2023-07-02T02:59:14;22.30;99.90
23731;DHT22;12046;44.702;10.622;2023-07-02T03:01:40;22.20;99.90
23731;DHT22;12046;44.702;10.622;2023-07-02T03:04:06;22.20;99.90
23731;DHT22;12046;44.702;10.622;2023-07-02T03:06:34;22.20;99.90
23731;DHT22;12046;44.702;10.622;2023-07-02T03:08:59;22.20;99.90
23731;DHT22;12046;44.702;10.622;2023-07-02T03:11:25;22.20;99.90
23731;DHT22;12046;44.702;10.622;2023-07-02T03:13:51;22.20;99.90
23731;DHT22;12046;44.702;10.622;2023-07-02T03:16:17;22.20;99.90
23731;DHT22;12046;44.702;10.622;2023-07-02T03:18:42;22.10;99.90
23731;DHT22;12046;44.702;10.622;2023-07-02T03:21:09;22.10;99.90
23731;DHT22;12046;44.702;10.622;2023-07-02T03:23:35;22.10;99.90
23731;DHT22;12046;44.702;10.622;2023-07-02T03:26:01;22.10;99.90
23731;DHT22;12046;44.702;10.622;2023-07-02T03:28:27;22.00;99.90
23731;DHT22;12046;44.702;10.622;2023-07-02T03:30:52;22.00;99.90
23731;DHT22;12046;44.702;10.622;2023-07-02T03:33:18;21.90;99.90
23731;DHT22;12046;44.702;10.622;2023-07-02T03:35:44;21.90;99.90
23731;DHT22;12046;44.702;10.622;2023-07-02T03:38:12;22.00;99.90
23731;DHT22;12046;44.702;10.622;2023-07-02T03:40:38;22.00;99.90
23731;DHT22;12046;44.702;10.622;2023-07-02T03:43:04;21.90;99.90
23731;DHT22;12046;44.702;10.622;2023-07-02T03:45:30;22.00;99.90
23731;DHT22;12046;44.702;10.622;2023-07-02T03:47:55;22.00;99.90
23731;DHT22;12046;44.702;10.622;2023-07-02T03:50:21;22.00;99.90
23731;DHT22;12046;44.702;10.622;2023-07-02T03:52:48;22.10;99.90
23731;DHT22;12046;44.702;10.622;2023-07-02T03:55:13;22.10;99.90
23731;DHT22;12046;44.702;10.622;2023-07-02T03:57:39;22.10;99.90
23731;DHT22;12046;44.702;10.622;2023-07-02T04:00:06;22.10;99.90
23731;DHT22;12046;44.702;10.622;2023-07-02T04:02:33;22.10;99.90
23731;DHT22;12046;44.702;10.622;2023-07-02T04:04:59;22.10;99.90
23731;DHT22;12046;44.702;10.622;2023-07-02T04:07:24;22.10;99.90
23731;DHT22;12046;44.702;10.622;2023-07-02T04:09:50;22.10;99.90
23731;DHT22;12046;44.702;10.622;2023-07-02T04:12:16;22.20;99.90
23731;DHT22;12046;44.702;10.622;2023-07-02T04:14:42;22.20;99.90
23731;DHT22;12046;44.702;10.622;2023-07-02T04:17:08;22.20;99.90
23731;DHT22;12046;44.702;10.622;2023-07-02T04:19:33;22.20;99.90
23731;DHT22;12046;44.702;10.622;2023-07-02T04:21:59;22.30;99.90
23731;DHT22;12046;44.702;10.622;2023-07-02T04:24:25;22.30;99.90
23731;DHT22;12046;44.702;10.622;2023-07-02T04:26:51;22.30;99.90
23731;DHT22;12046;44.702;10.622;2023-07-02T04:29:18;22.30;99.90
23731;DHT22;12046;44.702;10.622;2023-07-02T04:31:44;22.40;99.90
23731;DHT22;12046;44.702;10.622;2023-07-02T04:34:09;22.40;99.90
23731;DHT22;12046;44.702;10.622;2023-07-02T04:36:35;22.40;99.90
23731;DHT22;12046;44.702;10.622;2023-07-02T04:39:01;22.40;99.90
23731;DHT22;12046;44.702;10.622;2023-07-02T04:41:29;22.50;99.90
23731;DHT22;12046;44.702;10.622;2023-07-02T04:43:56;22.50;99.90
23731;DHT22;12046;44.702;10.622;2023-07-02T04:46:25;22.50;99.90
23731;DHT22;12046;44.702;10.622;2023-07-02T04:48:50;22.60;99.90
23731;DHT22;12046;44.702;10.622;2023-07-02T04:51:16;22.60;99.90
23731;DHT22;12046;44.702;10.622;2023-07-02T04:53:42;22.70;99.90
23731;DHT22;12046;44.702;10.622;2023-07-02T04:56:08;22.80;99.90
23731;DHT22;12046;44.702;10.622;2023-07-02T04:58:33;22.80;99.90
23731;DHT22;12046;44.702;10.622;2023-07-02T05:00:59;22.90;99.90
23731;DHT22;12046;44.702;10.622;2023-07-02T05:03:26;22.90;99.90
23731;DHT22;12046;44.702;10.622;2023-07-02T05:05:52;23.00;99.90
23731;DHT22;12046;44.702;10.622;2023-07-02T05:08:18;23.10;99.90
23731;DHT22;12046;44.702;10.622;2023-07-02T05:10:44;23.10;99.90
23731;DHT22;12046;44.702;10.622;2023-07-02T05:13:10;23.20;99.90
23731;DHT22;12046;44.702;10.622;2023-07-02T05:15:35;23.30;99.90
23731;DHT22;12046;44.702;10.622;2023-07-02T05:18:01;23.30;99.90
23731;DHT22;12046;44.702;10.622;2023-07-02T05:20:27;23.40;99.90
23731;DHT22;12046;44.702;10.622;2023-07-02T05:22:53;23.40;99.90
23731;DHT22;12046;44.702;10.622;2023-07-02T05:25:19;23.50;99.90
23731;DHT22;12046;44.702;10.622;2023-07-02T05:27:44;23.50;99.90
23731;DHT22;12046;44.702;10.622;2023-07-02T05:30:11;23.60;99.90
23731;DHT22;12046;44.702;10.622;2023-07-02T05:32:36;23.60;99.90
23731;DHT22;12046;44.702;10.622;2023-07-02T05:35:02;23.70;99.90
23731;DHT22;12046;44.702;10.622;2023-07-02T05:37:28;23.70;99.90
23731;DHT22;12046;44.702;10.622;2023-07-02T05:39:54;23.80;99.90
23731;DHT22;12046;44.702;10.622;2023-07-02T05:42:20;23.90;99.90
23731;DHT22;12046;44.702;10.622;2023-07-02T05:44:46;24.00;99.90
23731;DHT22;12046;44.702;10.622;2023-07-02T05:47:11;24.10;99.90
23731;DHT22;12046;44.702;10.622;2023-07-02T05:49:37;24.10;99.90
23731;DHT22;12046;44.702;10.622;2023-07-02T05:52:03;24.10;99.90
23731;DHT22;12046;44.702;10.622;2023-07-02T05:54:29;24.20;99.90
23731;DHT22;12046;44.702;10.622;2023-07-02T05:56:55;24.30;99.90
23731;DHT22;12046;44.702;10.622;2023-07-02T05:59:20;24.30;99.90
23731;DHT22;12046;44.702;10.622;2023-07-02T06:01:46;24.40;99.90
23731;DHT22;12046;44.702;10.622;2023-07-02T06:04:12;24.40;99.90
23731;DHT22;12046;44.702;10.622;2023-07-02T06:06:38;24.50;99.90
23731;DHT22;12046;44.702;10.622;2023-07-02T06:09:04;24.60;99.90
23731;DHT22;12046;44.702;10.622;2023-07-02T06:11:29;24.60;99.90
23731;DHT22;12046;44.702;10.622;2023-07-02T06:13:55;24.60;99.90
23731;DHT22;12046;44.702;10.622;2023-07-02T06:16:22;24.70;99.90
23731;DHT22;12046;44.702;10.622;2023-07-02T06:18:48;24.70;99.90
23731;DHT22;12046;44.702;10.622;2023-07-02T06:21:13;24.70;99.90
23731;DHT22;12046;44.702;10.622;2023-07-02T06:23:45;24.70;99.90
23731;DHT22;12046;44.702;10.622;2023-07-02T06:26:11;24.80;99.90
23731;DHT22;12046;44.702;10.622;2023-07-02T06:28:38;24.90;99.90
23731;DHT22;12046;44.702;10.622;2023-07-02T06:31:06;25.00;99.90
23731;DHT22;12046;44.702;10.622;2023-07-02T06:33:32;25.10;99.90
23731;DHT22;12046;44.702;10.622;2023-07-02T06:35:58;25.20;99.90
23731;DHT22;12046;44.702;10.622;2023-07-02T06:38:24;25.20;99.90
23731;DHT22;12046;44.702;10.622;2023-07-02T06:40:50;25.30;99.90
23731;DHT22;12046;44.702;10.622;2023-07-02T06:43:15;25.50;99.90
23731;DHT22;12046;44.702;10.622;2023-07-02T06:45:41;25.60;99.90
23731;DHT22;12046;44.702;10.622;2023-07-02T06:48:07;25.60;99.90
23731;DHT22;12046;44.702;10.622;2023-07-02T06:50:33;25.80;99.90
23731;DHT22;12046;44.702;10.622;2023-07-02T06:52:59;25.90;99.90
23731;DHT22;12046;44.702;10.622;2023-07-02T06:55:27;26.00;99.90
23731;DHT22;12046;44.702;10.622;2023-07-02T06:57:53;26.10;99.90
23731;DHT22;12046;44.702;10.622;2023-07-02T07:00:19;26.10;99.90
23731;DHT22;12046;44.702;10.622;2023-07-02T07:02:45;26.20;99.90
23731;DHT22;12046;44.702;10.622;2023-07-02T07:05:10;26.30;99.90
23731;DHT22;12046;44.702;10.622;2023-07-02T07:07:36;26.40;99.90
23731;DHT22;12046;44.702;10.622;2023-07-02T07:10:02;26.50;99.90
23731;DHT22;12046;44.702;10.622;2023-07-02T07:12:29;26.50;99.90
23731;DHT22;12046;44.702;10.622;2023-07-02T07:14:55;26.50;99.90
23731;DHT22;12046;44.702;10.622;2023-07-02T07:17:24;26.60;99.90
23731;DHT22;12046;44.702;10.622;2023-07-02T07:19:49;26.70;99.90
23731;DHT22;12046;44.702;10.622;2023-07-02T07:22:15;26.80;99.90
23731;DHT22;12046;44.702;10.622;2023-07-02T07:24:41;26.90;99.90
23731;DHT22;12046;44.702;10.622;2023-07-02T07:27:10;27.00;99.90
23731;DHT22;12046;44.702;10.622;2023-07-02T07:29:35;27.00;99.90
23731;DHT22;12046;44.702;10.622;2023-07-02T07:32:01;27.10;99.90
23731;DHT22;12046;44.702;10.622;2023-07-02T07:34:27;27.20;99.90
23731;DHT22;12046;44.702;10.622;2023-07-02T07:36:53;27.30;99.90
23731;DHT22;12046;44.702;10.622;2023-07-02T07:39:19;27.30;99.90
23731;DHT22;12046;44.702;10.622;2023-07-02T07:41:48;27.50;99.90
23731;DHT22;12046;44.702;10.622;2023-07-02T07:44:16;27.50;99.90
23731;DHT22;12046;44.702;10.622;2023-07-02T07:46:42;27.60;99.90
23731;DHT22;12046;44.702;10.622;2023-07-02T07:49:08;27.60;99.90
23731;DHT22;12046;44.702;10.622;2023-07-02T07:51:33;27.70;99.90
23731;DHT22;12046;44.702;10.622;2023-07-02T07:54:02;27.70;99.90
23731;DHT22;12046;44.702;10.622;2023-07-02T07:56:28;27.80;99.90
23731;DHT22;12046;44.702;10.622;2023-07-02T07:58:54;27.90;99.90
23731;DHT22;12046;44.702;10.622;2023-07-02T08:01:19;27.90;99.90
23731;DHT22;12046;44.702;10.622;2023-07-02T08:03:46;28.00;99.90
23731;DHT22;12046;44.702;10.622;2023-07-02T08:06:11;28.10;99.90
23731;DHT22;12046;44.702;10.622;2023-07-02T08:08:37;28.10;99.90
23731;DHT22;12046;44.702;10.622;2023-07-02T08:11:03;28.30;99.90
23731;DHT22;12046;44.702;10.622;2023-07-02T08:13:29;28.30;99.90
23731;DHT22;12046;44.702;10.622;2023-07-02T08:15:55;28.40;99.90
23731;DHT22;12046;44.702;10.622;2023-07-02T08:18:21;28.50;99.90
23731;DHT22;12046;44.702;10.622;2023-07-02T08:20:46;28.60;99.90
23731;DHT22;12046;44.702;10.622;2023-07-02T08:23:12;28.60;99.90
23731;DHT22;12046;44.702;10.622;2023-07-02T08:25:38;28.70;99.90
23731;DHT22;12046;44.702;10.622;2023-07-02T08:28:04;28.80;99.90
23731;DHT22;12046;44.702;10.622;2023-07-02T08:30:30;28.80;99.90
23731;DHT22;12046;44.702;10.622;2023-07-02T08:32:55;28.90;99.90
23731;DHT22;12046;44.702;10.622;2023-07-02T08:35:22;29.00;99.80
23731;DHT22;12046;44.702;10.622;2023-07-02T08:37:48;29.10;99.70
23731;DHT22;12046;44.702;10.622;2023-07-02T08:40:20;29.20;99.50
23731;DHT22;12046;44.702;10.622;2023-07-02T08:42:46;29.20;98.90
23731;DHT22;12046;44.702;10.622;2023-07-02T08:45:16;29.10;98.80
23731;DHT22;12046;44.702;10.622;2023-07-02T08:47:43;29.10;98.90
23731;DHT22;12046;44.702;10.622;2023-07-02T08:50:13;29.20;99.00
23731;DHT22;12046;44.702;10.622;2023-07-02T08:52:39;29.20;98.90
23731;DHT22;12046;44.702;10.622;2023-07-02T08:55:06;29.30;98.90
23731;DHT22;12046;44.702;10.622;2023-07-02T08:57:32;29.50;98.80
23731;DHT22;12046;44.702;10.622;2023-07-02T08:59:58;29.50;98.70
23731;DHT22;12046;44.702;10.622;2023-07-02T09:02:34;29.60;98.60
23731;DHT22;12046;44.702;10.622;2023-07-02T09:05:06;29.70;98.40
23731;DHT22;12046;44.702;10.622;2023-07-02T09:07:45;29.80;98.10
23731;DHT22;12046;44.702;10.622;2023-07-02T09:10:11;29.80;98.10
23731;DHT22;12046;44.702;10.622;2023-07-02T09:12:37;29.80;98.10
23731;DHT22;12046;44.702;10.622;2023-07-02T09:15:06;29.90;98.10
23731;DHT22;12046;44.702;10.622;2023-07-02T09:17:36;30.00;98.10
23731;DHT22;12046;44.702;10.622;2023-07-02T09:20:04;30.10;98.00
23731;DHT22;12046;44.702;10.622;2023-07-02T09:22:34;30.20;97.90
23731;DHT22;12046;44.702;10.622;2023-07-02T09:25:04;30.20;97.80
23731;DHT22;12046;44.702;10.622;2023-07-02T09:27:34;30.30;97.50
23731;DHT22;12046;44.702;10.622;2023-07-02T09:30:06;30.30;97.30
23731;DHT22;12046;44.702;10.622;2023-07-02T09:32:32;30.40;97.20
23731;DHT22;12046;44.702;10.622;2023-07-02T09:34:58;30.50;97.00
23731;DHT22;12046;44.702;10.622;2023-07-02T09:37:24;30.50;96.80
23731;DHT22;12046;44.702;10.622;2023-07-02T09:39:57;30.60;96.80
23731;DHT22;12046;44.702;10.622;2023-07-02T09:42:25;30.70;96.70
23731;DHT22;12046;44.702;10.622;2023-07-02T09:44:59;30.80;96.50
23731;DHT22;12046;44.702;10.622;2023-07-02T09:47:28;30.90;96.20
23731;DHT22;12046;44.702;10.622;2023-07-02T09:50:02;30.90;95.90
23731;DHT22;12046;44.702;10.622;2023-07-02T09:52:28;30.90;95.80
23731;DHT22;12046;44.702;10.622;2023-07-02T09:54:54;31.00;95.70
23731;DHT22;12046;44.702;10.622;2023-07-02T09:57:20;31.00;95.60
23731;DHT22;12046;44.702;10.622;2023-07-02T09:59:46;31.10;95.50
23731;DHT22;12046;44.702;10.622;2023-07-02T10:02:13;31.20;94.80
23731;DHT22;12046;44.702;10.622;2023-07-02T10:04:44;31.30;94.70
23731;DHT22;12046;44.702;10.622;2023-07-02T10:07:11;31.30;94.80
23731;DHT22;12046;44.702;10.622;2023-07-02T10:09:39;31.30;94.70
23731;DHT22;12046;44.702;10.622;2023-07-02T10:12:19;31.40;94.60
23731;DHT22;12046;44.702;10.622;2023-07-02T10:14:46;31.60;94.20
23731;DHT22;12046;44.702;10.622;2023-07-02T10:17:25;31.50;94.00
23731;DHT22;12046;44.702;10.622;2023-07-02T10:19:52;31.60;93.90
23731;DHT22;12046;44.702;10.622;2023-07-02T10:22:18;31.60;93.50
23731;DHT22;12046;44.702;10.622;2023-07-02T10:24:55;31.60;93.50
23731;DHT22;12046;44.702;10.622;2023-07-02T10:27:41;31.60;93.60
23731;DHT22;12046;44.702;10.622;2023-07-02T10:30:09;31.70;93.60
23731;DHT22;12046;44.702;10.622;2023-07-02T10:32:36;31.80;93.40
23731;DHT22;12046;44.702;10.622;2023-07-02T10:35:17;31.80;93.50
23731;DHT22;12046;44.702;10.622;2023-07-02T10:37:43;31.80;93.60
23731;DHT22;12046;44.702;10.622;2023-07-02T10:40:13;31.90;93.60
23731;DHT22;12046;44.702;10.622;2023-07-02T10:42:49;32.00;93.50
23731;DHT22;12046;44.702;10.622;2023-07-02T10:45:15;32.00;93.30
23731;DHT22;12046;44.702;10.622;2023-07-02T10:47:42;32.10;92.90
23731;DHT22;12046;44.702;10.622;2023-07-02T10:50:18;32.20;92.80
23731;DHT22;12046;44.702;10.622;2023-07-02T10:52:44;32.20;92.40
23731;DHT22;12046;44.702;10.622;2023-07-02T10:55:10;32.30;92.40
23731;DHT22;12046;44.702;10.622;2023-07-02T10:57:36;32.40;92.30
23731;DHT22;12046;44.702;10.622;2023-07-02T11:00:06;32.40;91.90
23731;DHT22;12046;44.702;10.622;2023-07-02T11:02:37;32.40;91.60
23731;DHT22;12046;44.702;10.622;2023-07-02T11:05:07;32.40;91.30
23731;DHT22;12046;44.702;10.622;2023-07-02T11:07:39;32.40;91.30
23731;DHT22;12046;44.702;10.622;2023-07-02T11:10:06;32.30;91.30
23731;DHT22;12046;44.702;10.622;2023-07-02T11:12:32;32.30;91.30
23731;DHT22;12046;44.702;10.622;2023-07-02T11:15:14;32.40;91.10
23731;DHT22;12046;44.702;10.622;2023-07-02T11:17:40;32.40;90.80
23731;DHT22;12046;44.702;10.622;2023-07-02T11:20:11;32.40;90.90
23731;DHT22;12046;44.702;10.622;2023-07-02T11:22:38;32.30;91.10
23731;DHT22;12046;44.702;10.622;2023-07-02T11:25:17;32.30;91.10
23731;DHT22;12046;44.702;10.622;2023-07-02T11:27:48;32.30;91.10
23731;DHT22;12046;44.702;10.622;2023-07-02T11:30:14;32.40;90.90
23731;DHT22;12046;44.702;10.622;2023-07-02T11:32:51;32.50;90.60
23731;DHT22;12046;44.702;10.622;2023-07-02T11:35:18;32.70;90.50
23731;DHT22;12046;44.702;10.622;2023-07-02T11:37:44;32.80;90.20
23731;DHT22;12046;44.702;10.622;2023-07-02T11:40:11;32.90;90.00
23731;DHT22;12046;44.702;10.622;2023-07-02T11:42:37;33.00;90.00
23731;DHT22;12046;44.702;10.622;2023-07-02T11:45:03;33.10;89.30
23731;DHT22;12046;44.702;10.622;2023-07-02T11:47:29;33.00;89.20
23731;DHT22;12046;44.702;10.622;2023-07-02T11:49:55;33.10;89.50
23731;DHT22;12046;44.702;10.622;2023-07-02T11:52:21;33.10;89.40
23731;DHT22;12046;44.702;10.622;2023-07-02T11:54:48;33.20;89.30
23731;DHT22;12046;44.702;10.622;2023-07-02T11:57:13;33.20;88.90
23731;DHT22;12046;44.702;10.622;2023-07-02T11:59:42;33.20;88.70
23731;DHT22;12046;44.702;10.622;2023-07-02T12:02:08;33.10;88.20
23731;DHT22;12046;44.702;10.622;2023-07-02T12:04:34;33.10;88.20
23731;DHT22;12046;44.702;10.622;2023-07-02T12:07:01;33.10;88.30
23731;DHT22;12046;44.702;10.622;2023-07-02T12:09:29;33.10;88.00
23731;DHT22;12046;44.702;10.622;2023-07-02T12:11:55;33.10;88.20
23731;DHT22;12046;44.702;10.622;2023-07-02T12:14:21;33.10;88.30
23731;DHT22;12046;44.702;10.622;2023-07-02T12:16:46;33.20;88.20
23731;DHT22;12046;44.702;10.622;2023-07-02T12:19:12;33.20;87.70
23731;DHT22;12046;44.702;10.622;2023-07-02T12:21:38;33.10;87.90
23731;DHT22;12046;44.702;10.622;2023-07-02T12:24:04;33.10;88.20
23731;DHT22;12046;44.702;10.622;2023-07-02T12:26:35;33.10;88.00
23731;DHT22;12046;44.702;10.622;2023-07-02T12:29:01;33.10;87.60
23731;DHT22;12046;44.702;10.622;2023-07-02T12:31:27;33.10;87.70
23731;DHT22;12046;44.702;10.622;2023-07-02T12:33:52;33.10;87.50
23731;DHT22;12046;44.702;10.622;2023-07-02T12:36:18;33.00;87.60
23731;DHT22;12046;44.702;10.622;2023-07-02T12:38:44;33.00;88.10
23731;DHT22;12046;44.702;10.622;2023-07-02T12:41:10;33.00;88.40
23731;DHT22;12046;44.702;10.622;2023-07-02T12:43:36;33.00;88.10
23731;DHT22;12046;44.702;10.622;2023-07-02T12:46:01;33.10;88.00
23731;DHT22;12046;44.702;10.622;2023-07-02T12:48:28;33.20;87.70
23731;DHT22;12046;44.702;10.622;2023-07-02T12:50:57;33.20;87.60
23731;DHT22;12046;44.702;10.622;2023-07-02T12:53:24;33.30;88.00
23731;DHT22;12046;44.702;10.622;2023-07-02T12:55:50;33.30;88.00
23731;DHT22;12046;44.702;10.622;2023-07-02T12:58:16;33.40;87.70
23731;DHT22;12046;44.702;10.622;2023-07-02T13:00:42;33.40;87.70
23731;DHT22;12046;44.702;10.622;2023-07-02T13:03:11;33.40;87.30
23731;DHT22;12046;44.702;10.622;2023-07-02T13:05:38;33.30;87.30
23731;DHT22;12046;44.702;10.622;2023-07-02T13:08:04;33.30;87.30
23731;DHT22;12046;44.702;10.622;2023-07-02T13:10:30;33.20;87.20
23731;DHT22;12046;44.702;10.622;2023-07-02T13:12:57;33.20;87.00
23731;DHT22;12046;44.702;10.622;2023-07-02T13:15:23;33.20;86.70
23731;DHT22;12046;44.702;10.622;2023-07-02T13:17:49;33.10;86.70
23731;DHT22;12046;44.702;10.622;2023-07-02T13:20:14;33.10;86.80
23731;DHT22;12046;44.702;10.622;2023-07-02T13:22:40;33.20;86.80
23731;DHT22;12046;44.702;10.622;2023-07-02T13:25:06;33.20;86.80
23731;DHT22;12046;44.702;10.622;2023-07-02T13:27:33;33.30;86.70
23731;DHT22;12046;44.702;10.622;2023-07-02T13:29:59;33.40;86.30
23731;DHT22;12046;44.702;10.622;2023-07-02T13:32:25;33.50;85.70
23731;DHT22;12046;44.702;10.622;2023-07-02T13:34:51;33.60;85.60
23731;DHT22;12046;44.702;10.622;2023-07-02T13:37:17;33.70;85.50
23731;DHT22;12046;44.702;10.622;2023-07-02T13:39:49;33.70;84.40
23731;DHT22;12046;44.702;10.622;2023-07-02T13:42:15;33.70;84.00
23731;DHT22;12046;44.702;10.622;2023-07-02T13:44:42;33.70;84.20
23731;DHT22;12046;44.702;10.622;2023-07-02T13:47:08;33.60;84.60
23731;DHT22;12046;44.702;10.622;2023-07-02T13:49:34;33.60;84.60
23731;DHT22;12046;44.702;10.622;2023-07-02T13:52:00;33.60;84.60
23731;DHT22;12046;44.702;10.622;2023-07-02T13:54:26;33.60;84.30
23731;DHT22;12046;44.702;10.622;2023-07-02T13:56:52;33.60;84.10
23731;DHT22;12046;44.702;10.622;2023-07-02T13:59:19;33.60;83.80
23731;DHT22;12046;44.702;10.622;2023-07-02T14:01:46;33.60;84.10
23731;DHT22;12046;44.702;10.622;2023-07-02T14:04:13;33.60;84.00
23731;DHT22;12046;44.702;10.622;2023-07-02T14:06:39;33.60;84.20
23731;DHT22;12046;44.702;10.622;2023-07-02T14:09:05;33.60;84.10
23731;DHT22;12046;44.702;10.622;2023-07-02T14:11:31;33.60;84.10
23731;DHT22;12046;44.702;10.622;2023-07-02T14:13:57;33.50;84.10
23731;DHT22;12046;44.702;10.622;2023-07-02T14:16:32;33.50;84.30
23731;DHT22;12046;44.702;10.622;2023-07-02T14:18:58;33.40;84.60
23731;DHT22;12046;44.702;10.622;2023-07-02T14:21:24;33.40;84.80
23731;DHT22;12046;44.702;10.622;2023-07-02T14:23:50;33.40;84.90
23731;DHT22;12046;44.702;10.622;2023-07-02T14:26:16;33.40;84.80
23731;DHT22;12046;44.702;10.622;2023-07-02T14:28:42;33.40;84.80
23731;DHT22;12046;44.702;10.622;2023-07-02T14:31:08;33.50;85.50
23731;DHT22;12046;44.702;10.622;2023-07-02T14:33:36;33.60;84.60
23731;DHT22;12046;44.702;10.622;2023-07-02T14:36:03;33.60;84.50
23731;DHT22;12046;44.702;10.622;2023-07-02T14:38:29;33.70;84.60
23731;DHT22;12046;44.702;10.622;2023-07-02T14:40:56;33.70;84.50
23731;DHT22;12046;44.702;10.622;2023-07-02T14:43:25;33.70;84.00
23731;DHT22;12046;44.702;10.622;2023-07-02T14:45:52;33.60;83.70
23731;DHT22;12046;44.702;10.622;2023-07-02T14:48:19;33.50;83.40
23731;DHT22;12046;44.702;10.622;2023-07-02T14:50:49;33.50;83.40
23731;DHT22;12046;44.702;10.622;2023-07-02T14:53:16;33.30;83.60
23731;DHT22;12046;44.702;10.622;2023-07-02T14:55:42;33.30;84.00
23731;DHT22;12046;44.702;10.622;2023-07-02T14:58:11;33.20;84.30
23731;DHT22;12046;44.702;10.622;2023-07-02T15:00:44;33.20;84.40
23731;DHT22;12046;44.702;10.622;2023-07-02T15:03:10;33.10;84.30
23731;DHT22;12046;44.702;10.622;2023-07-02T15:05:35;33.00;84.40
23731;DHT22;12046;44.702;10.622;2023-07-02T15:08:01;32.90;84.50
23731;DHT22;12046;44.702;10.622;2023-07-02T15:10:27;32.80;84.80
23731;DHT22;12046;44.702;10.622;2023-07-02T15:12:53;32.70;85.00